Time;durP1;ratioP1;P1;durP2;ratioP2;P2;SDS_P1;SDS_P2;PMS_P1;PMS_P2;Temp;Humidity;BMP_temperature;BMP_pressure;BME280_temperature;BME280_humidity;BME280_pressure;Samples;Min_cycle;Max_cycle;Signal;HPM_P1;HPM_P2
2022/04/23 00:00:05;;;;;;;13.60;10.95;;;;;;;10.03;52.16;98738.38;10319577;28;20508;-74
2022/04/23 00:05:07;;;;;;;14.32;11.23;;;;;;;9.92;52.44;98740.94;10327686;28;20107;-74
2022/04/23 00:10:09;;;;;;;14.23;10.80;;;;;;;9.92;52.29;98730.50;10329751;28;20058;-74
2022/04/23 00:15:11;;;;;;;13.27;11.02;;;;;;;9.95;52.53;98747.72;10323660;28;20050;-74
2022/04/23 00:20:13;;;;;;;13.38;11.07;;;;;;;9.93;52.52;98742.59;10322059;28;20060;-74
2022/04/23 00:25:14;;;;;;;15.07;12.38;;;;;;;9.89;52.52;98746.38;10343192;28;20127;-74
2022/04/23 00:30:16;;;;;;;18.52;13.02;;;;;;;9.78;52.80;98746.38;10335011;28;20140;-74
2022/04/23 00:35:18;;;;;;;14.55;12.32;;;;;;;9.55;53.22;98742.84;10324594;28;20133;-75
2022/04/23 00:40:20;;;;;;;16.95;13.55;;;;;;;9.40;53.84;98741.34;10326244;28;20141;-74
2022/04/23 00:45:24;;;;;;;18.00;14.93;;;;;;;9.34;54.16;98733.97;10316144;28;20077;-74
2022/04/23 00:50:26;;;;;;;16.98;14.48;;;;;;;9.20;54.67;98739.38;10320419;28;20588;-74
2022/04/23 00:55:30;;;;;;;18.80;15.88;;;;;;;9.08;55.07;98744.66;10332764;28;20603;-74
2022/04/23 01:00:33;;;;;;;22.13;16.90;;;;;;;9.06;55.14;98742.16;10322564;28;20050;-74
2022/04/23 01:05:55;;;;;;;20.10;16.80;;;;;;;8.91;56.37;98730.25;10312412;28;20128;-74
2022/04/23 01:10:56;;;;;;;20.20;16.05;;;;;;;8.94;55.81;98729.16;10312914;28;20124;-74
2022/04/23 01:16:10;;;;;;;19.02;16.73;;;;;;;8.73;57.14;98729.75;10316261;28;20507;-74
2022/04/23 01:21:13;;;;;;;18.73;15.98;;;;;;;8.78;56.53;98724.22;10323824;28;20148;-74
2022/04/23 01:26:29;;;;;;;19.92;16.52;;;;;;;8.71;57.63;98723.81;10319061;28;20046;-74
2022/04/23 01:31:32;;;;;;;21.67;18.23;;;;;;;8.83;56.60;98727.34;10324493;28;20133;-74
2022/04/23 01:36:34;;;;;;;20.38;17.88;;;;;;;8.83;56.77;98729.97;10329319;28;20050;-74
2022/04/23 01:41:35;;;;;;;21.90;18.30;;;;;;;8.77;57.06;98728.59;10330798;28;20058;-74
2022/04/23 01:46:37;;;;;;;25.48;20.63;;;;;;;8.71;57.40;98722.97;10318702;28;20136;-74
2022/04/23 01:51:39;;;;;;;23.13;19.23;;;;;;;8.65;57.61;98724.25;10328533;28;20189;-74
2022/04/23 01:56:41;;;;;;;22.48;18.30;;;;;;;8.70;57.51;98726.53;10329010;28;20062;-74
2022/04/23 02:01:42;;;;;;;22.77;19.15;;;;;;;8.72;57.45;98732.47;10331789;28;20077;-74
2022/04/23 02:06:45;;;;;;;23.35;20.13;;;;;;;8.76;57.24;98733.94;10325609;28;20062;-74
2022/04/23 02:11:47;;;;;;;21.90;19.55;;;;;;;8.69;57.52;98738.75;10321226;28;20108;-74
2022/04/23 02:16:49;;;;;;;25.13;21.05;;;;;;;8.69;57.57;98730.06;10322370;28;20134;-74
2022/04/23 02:21:50;;;;;;;22.00;19.05;;;;;;;8.59;57.31;98729.06;10344403;28;20440;-74
2022/04/23 02:26:52;;;;;;;26.77;19.67;;;;;;;8.59;57.48;98729.06;10348482;28;20049;-74
2022/04/23 02:31:54;;;;;;;24.33;20.63;;;;;;;8.58;57.41;98730.03;10342684;28;20093;-74
2022/04/23 02:36:56;;;;;;;25.73;21.50;;;;;;;8.42;57.52;98726.84;10335309;28;20141;-74
2022/04/23 02:41:58;;;;;;;25.50;21.80;;;;;;;8.31;58.53;98732.78;10360273;28;20090;-75
2022/04/23 02:47:00;;;;;;;27.75;21.83;;;;;;;8.37;58.32;98727.16;10331318;28;20050;-74
2022/04/23 02:52:02;;;;;;;26.17;22.92;;;;;;;8.61;57.98;98722.81;10333200;28;20178;-74
2022/04/23 02:57:04;;;;;;;27.13;21.45;;;;;;;8.89;57.62;98720.84;10333586;28;20058;-75
2022/04/23 03:02:06;;;;;;;27.63;21.42;;;;;;;9.03;57.32;98724.13;10334980;28;20065;-75
2022/04/23 03:07:10;;;;;;;22.77;20.17;;;;;;;9.20;57.03;98717.69;10325448;28;20061;-74
2022/04/23 03:12:12;;;;;;;24.48;20.88;;;;;;;9.39;56.69;98712.78;10332827;28;20513;-74
2022/04/23 03:17:13;;;;;;;23.48;19.20;;;;;;;9.38;56.58;98717.16;10324032;28;20066;-74
2022/04/23 03:22:16;;;;;;;22.33;19.75;;;;;;;9.59;56.43;98722.56;10316089;28;20213;-74
2022/04/23 03:27:18;;;;;;;23.63;21.08;;;;;;;9.52;56.57;98727.41;10314137;28;20570;-75
2022/04/23 03:32:20;;;;;;;22.42;20.02;;;;;;;9.45;56.70;98722.75;10325557;28;20149;-75
2022/04/23 03:37:22;;;;;;;23.52;20.83;;;;;;;9.42;56.98;98729.03;10335908;28;20123;-75
2022/04/23 03:42:24;;;;;;;22.17;19.55;;;;;;;9.32;56.94;98722.81;10328712;28;20085;-74
2022/04/23 03:47:26;;;;;;;22.27;19.48;;;;;;;9.13;57.27;98725.13;10334821;28;20184;-74
2022/04/23 03:52:28;;;;;;;23.75;20.60;;;;;;;9.05;57.62;98724.03;10342959;28;20507;-75
2022/04/23 03:57:31;;;;;;;22.25;19.95;;;;;;;8.92;57.63;98718.84;10314475;28;20689;-74
2022/04/23 04:02:32;;;;;;;24.52;20.88;;;;;;;8.85;57.85;98720.25;10326128;28;20124;-74
2022/04/23 04:07:34;;;;;;;22.92;19.70;;;;;;;8.97;57.47;98721.97;10324375;28;20404;-74
2022/04/23 04:12:37;;;;;;;22.83;19.35;;;;;;;8.92;57.58;98723.22;10321982;28;20081;-74
2022/04/23 04:17:40;;;;;;;22.88;19.73;;;;;;;8.95;57.48;98723.88;10336603;28;20508;-74
2022/04/23 04:22:43;;;;;;;23.10;19.73;;;;;;;8.99;57.60;98725.31;10333541;28;20082;-74
2022/04/23 04:27:45;;;;;;;20.70;17.75;;;;;;;9.10;57.41;98724.50;10319959;28;20078;-75
2022/04/23 04:32:47;;;;;;;22.95;18.65;;;;;;;9.26;57.15;98715.44;10320251;28;20120;-74
2022/04/23 04:37:49;;;;;;;23.80;18.25;;;;;;;9.30;56.91;98718.69;10329840;28;20501;-74
2022/04/23 04:42:51;;;;;;;22.35;18.77;;;;;;;9.28;56.94;98712.75;10322960;28;20623;-74
2022/04/23 04:47:52;;;;;;;19.88;17.73;;;;;;;9.32;57.02;98717.59;10343558;28;20132;-75
2022/04/23 04:52:54;;;;;;;19.67;16.88;;;;;;;9.40;56.65;98711.84;10340503;28;20053;-74
2022/04/23 04:57:56;;;;;;;20.42;17.67;;;;;;;9.31;56.93;98718.56;10323580;28;20171;-74
2022/04/23 05:02:58;;;;;;;19.55;17.33;;;;;;;9.42;56.54;98723.81;10328757;28;20042;-74
2022/04/23 05:08:00;;;;;;;19.60;16.75;;;;;;;9.54;56.56;98737.75;10319203;28;20058;-75
2022/04/23 05:13:01;;;;;;;20.20;15.20;;;;;;;9.55;56.47;98735.00;10326679;28;20074;-74
2022/04/23 05:18:03;;;;;;;18.23;15.13;;;;;;;9.72;56.23;98740.78;10323026;28;20081;-74
2022/04/23 05:23:05;;;;;;;19.92;16.15;;;;;;;9.81;55.96;98738.28;10312508;28;20113;-75
2022/04/23 05:28:07;;;;;;;15.80;13.95;;;;;;;9.80;55.76;98743.66;10329649;28;20054;-75
2022/04/23 05:33:09;;;;;;;14.48;12.55;;;;;;;9.96;55.40;98744.16;10317072;28;20172;-75
2022/04/23 05:38:11;;;;;;;14.52;13.02;;;;;;;10.21;55.04;98746.56;10317331;28;20411;-75
2022/04/23 05:43:13;;;;;;;16.38;13.45;;;;;;;10.50;54.50;98748.56;10341650;28;20046;-75
2022/04/23 05:48:15;;;;;;;14.98;12.63;;;;;;;10.68;54.10;98756.78;10317476;28;20081;-75
2022/04/23 05:53:16;;;;;;;16.90;13.38;;;;;;;10.95;54.08;98746.72;10321131;28;20523;-75
2022/04/23 05:58:18;;;;;;;14.57;11.65;;;;;;;10.95;53.44;98751.94;10320615;28;20090;-75
2022/04/23 06:03:20;;;;;;;12.73;11.05;;;;;;;11.32;53.18;98750.69;10339227;28;20116;-75
2022/04/23 06:08:22;;;;;;;16.02;11.25;;;;;;;11.77;51.82;98737.38;10322480;28;20056;-75
2022/04/23 06:13:24;;;;;;;13.38;11.15;;;;;;;12.10;51.46;98734.56;10326637;28;20449;-75
2022/04/23 06:18:26;;;;;;;11.68;10.48;;;;;;;12.39;50.62;98729.47;10319203;28;20093;-75
2022/04/23 06:23:27;;;;;;;12.13;9.88;;;;;;;12.54;50.42;98734.22;10331701;28;20156;-77
2022/04/23 06:28:29;;;;;;;11.20;9.60;;;;;;;12.52;49.95;98736.16;10333623;28;20116;-75
2022/04/23 06:33:31;;;;;;;10.73;9.60;;;;;;;12.53;49.81;98740.44;10320016;28;20050;-75
2022/04/23 06:38:32;;;;;;;11.65;9.65;;;;;;;12.57;49.30;98733.97;10329182;28;20462;-76
2022/04/23 06:43:34;;;;;;;12.10;9.60;;;;;;;12.81;48.79;98726.59;10324474;28;20056;-76
2022/04/23 06:48:36;;;;;;;11.85;9.40;;;;;;;12.79;48.94;98735.53;10321929;28;20061;-77
2022/04/23 06:53:38;;;;;;;11.80;9.95;;;;;;;12.46;49.20;98725.34;10319512;28;20160;-77
2022/04/23 06:58:40;;;;;;;11.23;8.50;;;;;;;12.50;48.77;98727.59;10319930;28;20148;-77
2022/04/23 07:03:41;;;;;;;11.30;8.93;;;;;;;12.95;48.22;98728.81;10330510;28;20888;-77
2022/04/23 07:08:44;;;;;;;9.95;8.68;;;;;;;13.05;47.74;98728.03;10322218;28;20148;-77
2022/04/23 07:13:46;;;;;;;10.20;8.70;;;;;;;13.11;47.83;98733.53;10327939;28;20139;-77
2022/04/23 07:18:47;;;;;;;9.93;8.35;;;;;;;13.39;47.28;98729.28;10324389;28;21009;-76
2022/04/23 07:24:10;;;;;;;10.65;9.30;;;;;;;13.35;47.01;98741.84;10328950;28;20910;-76
2022/04/23 07:29:12;;;;;;;13.75;8.63;;;;;;;13.57;47.07;98731.09;10324681;28;20200;-76
2022/04/23 07:39:36;;;;;;;10.95;8.25;;;;;;;14.99;44.08;98716.78;10326996;28;20053;-78
2022/04/23 07:44:38;;;;;;;8.93;7.85;;;;;;;15.56;42.93;98729.53;10330217;28;20061;-78
2022/04/23 07:49:40;;;;;;;10.18;8.27;;;;;;;16.19;41.85;98714.31;10331832;28;20107;-78
2022/04/23 07:54:43;;;;;;;9.38;7.25;;;;;;;16.30;41.59;98718.50;10330289;28;20053;-79
2022/04/23 07:59:45;;;;;;;10.25;6.95;;;;;;;16.80;40.67;98722.06;10329209;28;20478;-79
2022/04/23 08:04:47;;;;;;;8.75;6.88;;;;;;;16.66;40.36;98722.66;10324280;28;20078;-79
2022/04/23 08:09:49;;;;;;;6.72;5.93;;;;;;;16.67;40.37;98713.78;10318823;28;20522;-78
2022/04/23 08:14:51;;;;;;;7.57;6.20;;;;;;;16.49;40.91;98720.97;10315955;28;20053;-78
2022/04/23 08:19:53;;;;;;;7.50;5.75;;;;;;;16.96;40.24;98719.47;10309118;28;20512;-79
2022/04/23 08:24:56;;;;;;;6.97;6.15;;;;;;;17.60;37.86;98713.47;10324306;28;20057;-78
2022/04/23 08:35:18;;;;;;;7.68;6.20;;;;;;;17.37;38.79;98717.75;10324898;28;20076;-78
2022/04/23 08:40:20;;;;;;;8.70;7.10;;;;;;;17.22;38.80;98711.44;10332117;28;20058;-77
2022/04/23 08:45:22;;;;;;;9.65;7.55;;;;;;;17.48;37.87;98714.81;10325755;28;20142;-77
2022/04/23 08:50:26;;;;;;;10.45;7.40;;;;;;;17.22;37.62;98716.72;10322437;28;20464;-77
2022/04/23 08:55:28;;;;;;;9.32;7.55;;;;;;;16.23;39.12;98719.13;10324298;28;20483;-76
2022/04/23 09:00:29;;;;;;;10.75;8.45;;;;;;;17.17;38.31;98711.09;10326837;28;20087;-77
2022/04/23 09:05:31;;;;;;;10.57;8.85;;;;;;;18.22;36.38;98711.97;10337562;28;20145;-76
2022/04/23 09:10:46;;;;;;;9.82;7.80;;;;;;;18.28;36.70;98713.94;10322694;28;20078;-77
2022/04/23 09:26:30;;;;;;;;;;;;;;;17.41;37.93;98704.06;10327917;28;20045;-77
2022/04/23 09:31:31;;;;;;;11.02;8.45;;;;;;;17.66;37.19;98702.25;10339393;28;20009;-77
2022/04/23 09:36:57;;;;;;;12.15;8.57;;;;;;;17.83;37.56;98709.19;10321011;28;20046;-77
2022/04/23 09:42:18;;;;;;;9.68;8.27;;;;;;;17.75;37.06;98699.41;10315783;28;20567;-77
2022/04/23 09:47:30;;;;;;;9.45;8.30;;;;;;;17.47;37.37;98707.84;10315363;28;20147;-77
2022/04/23 09:52:32;;;;;;;11.18;7.82;;;;;;;16.93;38.07;98710.06;10318981;28;20065;-77
2022/04/23 09:57:55;;;;;;;9.20;7.28;;;;;;;16.89;38.87;98703.47;10307225;28;20057;-77
2022/04/23 10:03:12;;;;;;;8.15;7.00;;;;;;;16.72;39.41;98704.38;10309082;28;20093;-77
2022/04/23 10:08:16;;;;;;;7.45;6.05;;;;;;;17.23;38.36;98705.16;10317373;28;20054;-77
2022/04/23 10:13:20;;;;;;;6.72;5.90;;;;;;;17.25;37.97;98705.81;10341746;28;20283;-77
2022/04/23 10:18:22;;;;;;;10.00;6.10;;;;;;;17.73;37.77;98696.13;10347053;28;20065;-77
2022/04/23 10:23:43;;;;;;;7.65;5.78;;;;;;;17.23;36.52;98690.13;10328370;28;20404;-77
2022/04/23 10:28:45;;;;;;;7.20;4.90;;;;;;;17.83;37.38;98683.53;10329384;28;20139;-77
2022/04/23 10:33:52;;;;;;;5.70;4.53;;;;;;;18.71;36.26;98683.50;10312149;28;20578;-77
2022/04/23 10:39:23;;;;;;;6.68;4.20;;;;;;;18.67;35.81;98662.63;10329708;28;20046;-77
2022/04/23 10:44:30;;;;;;;5.28;4.18;;;;;;;18.46;35.35;98677.47;10319858;28;20081;-77
2022/04/23 10:49:31;;;;;;;5.53;4.05;;;;;;;18.21;36.47;98665.31;10313592;28;20086;-77
2022/04/23 10:54:39;;;;;;;5.18;3.85;;;;;;;17.80;36.55;98670.66;10337662;28;20105;-77
2022/04/23 10:59:49;;;;;;;6.30;3.90;;;;;;;17.54;36.59;98666.56;10344575;28;20089;-77
2022/04/23 11:16:16;;;;;;;8.10;5.38;;;;;;;16.45;38.46;98666.81;10322959;28;20140;-77
2022/04/23 11:21:28;;;;;;;9.82;6.68;;;;;;;16.74;38.56;98661.97;10303481;28;20085;-77
2022/04/23 11:26:44;;;;;;;9.27;7.18;;;;;;;16.61;38.30;98657.16;10311334;28;20111;-77
2022/04/23 11:31:58;;;;;;;10.02;8.18;;;;;;;16.37;39.03;98669.38;10327172;28;20061;-77
2022/04/23 11:37:00;;;;;;;8.88;7.05;;;;;;;16.62;39.05;98668.53;10320547;28;20096;-77
2022/04/23 11:42:02;;;;;;;10.45;7.95;;;;;;;17.03;38.03;98662.38;10332557;28;20064;-77
2022/04/23 11:47:04;;;;;;;10.30;7.25;;;;;;;16.76;38.60;98652.06;10333980;28;20088;-77
2022/04/23 11:52:12;;;;;;;10.23;7.25;;;;;;;16.97;38.16;98660.38;10329977;28;20054;-77
2022/04/23 11:57:16;;;;;;;11.35;6.80;;;;;;;17.41;37.96;98647.72;10328900;28;20057;-77
2022/04/23 12:02:23;;;;;;;10.23;7.30;;;;;;;17.44;36.79;98645.59;10328154;28;20144;-77
2022/04/23 12:07:27;;;;;;;8.82;6.80;;;;;;;17.72;36.37;98641.59;10304280;28;20057;-77
2022/04/23 12:12:33;;;;;;;8.45;6.82;;;;;;;17.93;36.42;98640.22;10312600;28;20089;-77
2022/04/23 12:17:49;;;;;;;11.52;8.02;;;;;;;17.52;35.91;98650.88;10317007;28;20057;-77
2022/04/23 12:22:58;;;;;;;11.02;8.07;;;;;;;17.26;37.21;98644.88;10348711;28;20104;-77
2022/04/23 12:44:20;;;;;;;13.77;9.13;;;;;;;18.46;35.64;98611.28;10332252;28;20570;-77
2022/04/23 12:49:22;;;;;;;11.82;8.90;;;;;;;17.97;36.39;98628.31;10332700;28;20061;-77
2022/04/23 12:54:24;;;;;;;12.30;9.18;;;;;;;17.66;36.75;98613.19;10315346;28;20695;-77
2022/04/23 12:59:26;;;;;;;14.23;10.07;;;;;;;17.00;37.76;98615.13;10325558;28;20515;-77
2022/04/23 13:04:28;;;;;;;13.52;10.00;;;;;;;16.79;37.47;98614.81;10345960;28;20116;-77
2022/04/23 13:09:29;;;;;;;14.25;10.80;;;;;;;16.58;38.92;98615.25;10311570;28;20316;-77
2022/04/23 13:14:31;;;;;;;13.65;10.93;;;;;;;16.59;38.84;98613.44;10330308;28;20462;-77
2022/04/23 13:19:34;;;;;;;13.40;10.73;;;;;;;17.15;38.92;98605.59;10330760;28;20054;-77
2022/04/23 13:24:36;;;;;;;14.77;10.23;;;;;;;17.80;37.96;98591.34;10328558;28;20046;-77
2022/04/23 13:29:38;;;;;;;12.68;10.07;;;;;;;17.87;36.83;98588.84;10354959;28;20133;-77
2022/04/23 13:34:40;;;;;;;14.35;10.40;;;;;;;17.51;37.85;98584.94;10330144;28;20132;-77
2022/04/23 13:39:42;;;;;;;15.07;10.80;;;;;;;17.22;38.29;98592.53;10313541;28;20508;-76
2022/04/23 13:44:44;;;;;;;20.63;14.55;;;;;;;16.96;38.62;98588.25;10321211;28;20050;-77
2022/04/23 13:49:47;;;;;;;22.13;18.63;;;;;;;16.46;39.82;98581.41;10323917;28;20057;-77
2022/04/23 13:54:49;;;;;;;19.73;17.30;;;;;;;16.53;39.51;98574.50;10323045;28;20108;-77
2022/04/23 13:59:51;;;;;;;21.60;17.63;;;;;;;16.17;40.27;98579.97;10309092;28;20516;-77
2022/04/23 14:10:14;;;;;;;20.40;15.90;;;;;;;16.11;40.66;98580.59;10331284;28;20113;-77
2022/04/23 14:15:16;;;;;;;15.60;12.75;;;;;;;16.04;40.25;98576.94;10310204;28;20497;-77
2022/04/23 14:20:18;;;;;;;14.85;12.43;;;;;;;15.95;40.51;98572.63;10309454;28;20136;-77
2022/04/23 14:25:19;;;;;;;16.23;12.68;;;;;;;16.23;40.07;98566.13;10337711;28;20392;-77
2022/04/23 14:30:21;;;;;;;19.15;16.35;;;;;;;16.29;40.18;98563.81;10325575;28;20169;-77
2022/04/23 14:35:23;;;;;;;19.98;16.73;;;;;;;16.30;40.17;98552.31;10311540;28;20568;-77
2022/04/23 14:40:26;;;;;;;18.38;16.02;;;;;;;16.11;40.22;98556.03;10322442;28;20472;-77
2022/04/23 14:45:31;;;;;;;18.02;15.20;;;;;;;16.13;40.20;98546.97;10318581;28;20455;-77
2022/04/23 14:53:10;;;;;;;18.08;14.85;;;;;;;16.39;40.01;98546.03;10311289;28;20554;-77
2022/04/23 14:55:54;;;;;;;17.58;14.57;;;;;;;16.34;40.14;98536.00;10331789;28;20128;-77
2022/04/23 15:00:56;;;;;;;16.63;13.35;;;;;;;16.31;40.05;98546.03;10335058;28;20143;-77
2022/04/23 15:05:59;;;;;;;14.23;12.20;;;;;;;16.21;40.10;98541.72;10305133;28;20141;-77
2022/04/23 15:11:02;;;;;;;15.07;11.15;;;;;;;16.32;40.03;98540.59;10333874;28;20097;-77
2022/04/23 15:16:04;;;;;;;15.85;11.52;;;;;;;16.31;39.94;98527.56;10305489;28;20125;-77
2022/04/23 15:21:07;;;;;;;14.13;11.00;;;;;;;16.27;39.87;98523.59;10335053;28;20061;-77
2022/04/23 15:26:10;;;;;;;12.35;10.20;;;;;;;16.24;39.70;98520.28;10338417;28;20050;-77
2022/04/23 15:32:03;;;;;;;13.50;10.32;;;;;;;16.30;39.36;98513.56;10343912;28;20062;-76
2022/04/23 15:37:05;;;;;;;12.68;9.98;;;;;;;16.92;39.10;98506.84;10325787;28;20078;-77
2022/04/23 15:42:07;;;;;;;12.65;10.35;;;;;;;17.04;38.82;98510.81;10307270;28;20431;-76
2022/04/23 15:47:09;;;;;;;12.60;9.95;;;;;;;17.08;38.55;98504.19;10344744;28;20169;-77
2022/04/23 15:52:15;;;;;;;13.23;10.00;;;;;;;16.98;38.43;98498.28;10320532;28;20058;-77
2022/04/23 15:57:17;;;;;;;11.43;9.52;;;;;;;17.18;38.27;98486.34;10333564;28;20198;-77
2022/04/23 16:02:24;;;;;;;12.82;10.02;;;;;;;17.15;38.30;98484.06;10311243;28;20054;-77
2022/04/23 16:07:27;;;;;;;14.52;10.82;;;;;;;17.01;38.61;98490.03;10321554;28;20064;-77
2022/04/23 16:12:29;;;;;;;14.60;11.50;;;;;;;16.83;38.68;98492.03;10324436;28;20054;-77
2022/04/23 16:17:30;;;;;;;16.02;10.45;;;;;;;16.78;39.03;98475.84;10334124;28;20086;-77
2022/04/23 16:22:32;;;;;;;13.52;11.40;;;;;;;16.80;38.63;98476.50;10329546;28;20057;-77
2022/04/23 16:27:34;;;;;;;14.73;10.68;;;;;;;16.70;38.61;98470.56;10310321;28;20112;-76
2022/04/23 16:32:36;;;;;;;13.02;10.38;;;;;;;16.39;39.25;98467.72;10351182;28;20141;-77
2022/04/23 16:48:26;;;;;;;16.67;12.40;;;;;;;16.18;39.03;98465.53;10350330;28;20302;-77
2022/04/23 16:53:29;;;;;;;13.57;11.88;;;;;;;16.03;39.77;98458.44;10314758;28;20152;-77
2022/04/23 16:58:32;;;;;;;15.35;11.18;;;;;;;16.17;39.68;98456.00;10338507;28;20125;-77
2022/04/23 17:03:34;;;;;;;14.55;12.00;;;;;;;16.17;39.37;98449.88;10340672;28;20189;-77
2022/04/23 17:08:39;;;;;;;14.55;11.40;;;;;;;16.11;39.36;98445.25;10309268;28;20086;-77
2022/04/23 17:13:41;;;;;;;17.35;11.50;;;;;;;15.84;39.77;98445.50;10346957;28;20057;-77
2022/04/23 17:18:43;;;;;;;13.85;11.52;;;;;;;15.98;39.95;98439.63;10323041;28;20078;-77
2022/04/23 17:23:45;;;;;;;15.05;10.63;;;;;;;15.90;40.14;98440.44;10311901;28;20563;-77
2022/04/23 17:28:47;;;;;;;12.57;9.77;;;;;;;15.95;40.39;98438.16;10321577;28;20089;-76
2022/04/23 17:33:49;;;;;;;12.27;10.98;;;;;;;15.78;40.32;98425.91;10340978;28;20057;-77
2022/04/23 17:38:58;;;;;;;12.52;11.00;;;;;;;15.92;40.22;98437.63;10320926;28;20082;-77
2022/04/23 17:44:00;;;;;;;14.45;10.15;;;;;;;15.90;40.58;98423.78;10324901;28;20115;-77
2022/04/23 17:49:02;;;;;;;13.27;10.82;;;;;;;15.77;40.62;98429.53;10321248;28;20143;-77
2022/04/23 17:54:04;;;;;;;12.57;9.63;;;;;;;15.81;40.33;98424.75;10337988;28;20054;-77
2022/04/23 17:59:06;;;;;;;12.95;9.57;;;;;;;15.83;41.20;98422.78;10317652;28;20147;-77
2022/04/23 18:09:28;;;;;;;10.60;9.50;;;;;;;15.64;40.92;98413.34;10331074;28;20137;-77
2022/04/23 18:14:30;;;;;;;10.88;9.02;;;;;;;15.58;40.92;98418.41;10327574;28;20055;-77
2022/04/23 18:19:33;;;;;;;12.00;9.43;;;;;;;15.46;41.32;98420.50;10313983;28;20061;-77
2022/04/23 18:24:35;;;;;;;11.13;9.00;;;;;;;15.43;40.88;98416.34;10329711;28;20087;-77
2022/04/23 18:29:42;;;;;;;9.95;8.55;;;;;;;15.38;41.28;98409.94;10330517;28;20058;-77
2022/04/23 18:34:44;;;;;;;12.40;9.35;;;;;;;15.36;41.37;98412.72;10341959;28;20057;-77
2022/04/23 18:39:46;;;;;;;9.70;8.23;;;;;;;15.35;41.71;98405.78;10320635;28;20500;-77
2022/04/23 18:44:48;;;;;;;12.25;8.40;;;;;;;15.24;41.32;98403.47;10315978;28;20133;-77
2022/04/23 18:49:50;;;;;;;11.18;8.25;;;;;;;15.07;41.35;98404.34;10321367;28;20077;-77
2022/04/23 18:54:56;;;;;;;8.63;7.72;;;;;;;14.96;41.04;98406.44;10319535;28;20057;-77
2022/04/23 18:59:58;;;;;;;9.57;7.65;;;;;;;14.96;41.53;98409.06;10336431;28;20366;-77
2022/04/23 19:05:00;;;;;;;10.35;7.20;;;;;;;14.81;41.02;98400.06;10327522;28;20160;-77
2022/04/23 19:10:02;;;;;;;8.65;7.05;;;;;;;14.82;40.66;98410.44;10305346;28;20142;-77
2022/04/23 19:15:04;;;;;;;10.32;7.97;;;;;;;14.63;41.01;98407.19;10311202;28;20595;-77
2022/04/23 19:20:07;;;;;;;12.20;8.30;;;;;;;14.59;40.85;98407.47;10317620;28;20062;-77
2022/04/23 19:30:29;;;;;;;10.27;7.10;;;;;;;14.40;40.79;98394.50;10325927;28;20120;-76
2022/04/23 19:35:31;;;;;;;10.45;7.25;;;;;;;14.29;41.00;98397.38;10319541;28;20097;-76
2022/04/23 19:40:33;;;;;;;8.38;7.18;;;;;;;14.24;41.18;98390.91;10313635;28;20101;-76
2022/04/23 19:45:35;;;;;;;9.07;7.13;;;;;;;14.10;41.46;98389.66;10318026;28;20562;-76
2022/04/23 19:50:37;;;;;;;8.77;7.20;;;;;;;14.00;42.08;98390.72;10310824;28;20046;-76
2022/04/23 19:55:40;;;;;;;8.30;7.15;;;;;;;13.90;41.87;98390.78;10305104;28;20528;-76
2022/04/23 20:00:41;;;;;;;10.45;7.55;;;;;;;13.81;42.06;98396.91;10344839;28;20054;-76
2022/04/23 20:05:43;;;;;;;8.25;7.18;;;;;;;13.75;41.91;98392.25;10344517;28;20137;-76
2022/04/23 20:10:45;;;;;;;8.95;7.20;;;;;;;13.53;41.98;98398.78;10324505;28;20059;-76
2022/04/23 20:15:47;;;;;;;9.30;6.80;;;;;;;13.47;42.09;98393.28;10302162;28;20061;-76
2022/04/23 20:20:49;;;;;;;8.73;6.38;;;;;;;13.40;42.05;98394.78;10302539;28;20054;-76
2022/04/23 20:25:51;;;;;;;7.82;5.85;;;;;;;13.40;42.12;98398.25;10328509;28;20058;-76
2022/04/23 20:30:52;;;;;;;9.75;6.30;;;;;;;13.37;42.10;98389.84;10337500;28;20069;-76
2022/04/23 20:41:15;;;;;;;9.60;6.20;;;;;;;13.21;41.98;98387.81;10318821;28;20582;-76
2022/04/23 20:46:16;;;;;;;8.00;6.13;;;;;;;13.15;42.25;98391.03;10333881;28;20056;-76
2022/04/23 20:51:19;;;;;;;8.30;6.10;;;;;;;13.23;42.01;98385.09;10316370;28;20428;-76
2022/04/23 20:56:21;;;;;;;7.75;5.60;;;;;;;13.19;41.88;98381.91;10332546;28;20204;-76
2022/04/23 21:01:24;;;;;;;6.50;5.10;;;;;;;13.24;42.02;98378.84;10338421;28;20583;-76
2022/04/23 21:06:26;;;;;;;6.40;5.13;;;;;;;13.13;41.65;98369.34;10329550;28;20144;-76
2022/04/23 21:11:28;;;;;;;7.88;4.95;;;;;;;13.00;42.27;98368.88;10326764;28;20054;-76
2022/04/23 21:16:30;;;;;;;6.20;4.85;;;;;;;12.85;41.69;98371.13;10334007;28;20058;-76
2022/04/23 21:21:32;;;;;;;7.47;4.70;;;;;;;12.85;42.45;98368.50;10332921;28;20059;-76
2022/04/23 21:26:33;;;;;;;8.50;4.93;;;;;;;12.77;42.60;98354.44;10335681;28;20463;-76
2022/04/23 21:31:35;;;;;;;5.90;4.75;;;;;;;12.75;42.54;98359.03;10311091;28;20109;-76
2022/04/23 21:36:38;;;;;;;8.18;5.05;;;;;;;12.58;42.25;98357.97;10330999;28;20046;-76
2022/04/23 21:47:00;;;;;;;7.05;4.80;;;;;;;12.46;42.42;98350.41;10325048;28;20137;-76
2022/04/23 21:52:02;;;;;;;8.00;4.38;;;;;;;12.31;42.10;98342.16;10317000;28;20062;-76
2022/04/23 21:57:04;;;;;;;5.70;4.47;;;;;;;12.37;42.73;98346.00;10334417;28;20054;-76
2022/04/23 22:02:06;;;;;;;5.70;4.38;;;;;;;12.24;41.95;98342.81;10321294;28;20081;-76
2022/04/23 22:07:08;;;;;;;5.45;4.13;;;;;;;12.26;41.88;98341.72;10319731;28;20081;-76
2022/04/23 22:12:10;;;;;;;8.63;4.28;;;;;;;12.25;41.67;98339.25;10325612;28;20753;-76
2022/04/23 22:17:13;;;;;;;7.55;4.10;;;;;;;12.27;41.54;98335.53;10328382;28;20085;-76
2022/04/23 22:22:15;;;;;;;4.88;3.78;;;;;;;12.36;41.87;98332.06;10338863;28;20054;-76
2022/04/23 22:27:17;;;;;;;5.35;3.80;;;;;;;12.38;41.86;98321.44;10319603;28;20086;-76
2022/04/23 22:32:19;;;;;;;6.85;3.83;;;;;;;12.45;41.92;98326.00;10345637;28;20057;-76
2022/04/23 22:37:21;;;;;;;6.65;4.03;;;;;;;12.34;41.61;98325.31;10343334;28;20145;-76
2022/04/23 22:42:22;;;;;;;5.97;4.05;;;;;;;12.33;41.68;98318.44;10346470;28;20507;-76
2022/04/23 22:47:24;;;;;;;5.07;3.72;;;;;;;12.26;42.10;98306.81;10312447;28;20370;-76
2022/04/23 22:52:26;;;;;;;7.10;3.60;;;;;;;12.09;41.94;98318.84;10330069;28;20544;-76
2022/04/23 22:57:28;;;;;;;5.13;3.30;;;;;;;12.01;41.53;98311.69;10304004;28;20104;-76
2022/04/23 23:02:29;;;;;;;6.32;3.50;;;;;;;11.90;41.88;98309.22;10315851;28;20780;-76
2022/04/23 23:07:39;;;;;;;5.38;3.42;;;;;;;11.87;41.63;98300.78;10327767;28;20072;-76
2022/04/23 23:12:41;;;;;;;5.10;3.53;;;;;;;11.85;41.95;98300.94;10321905;28;20583;-76
2022/04/23 23:17:42;;;;;;;5.60;3.72;;;;;;;11.81;42.16;98294.34;10325102;28;20535;-76
2022/04/23 23:22:44;;;;;;;4.35;2.97;;;;;;;11.65;42.35;98293.22;10330332;28;20089;-76
2022/04/23 23:27:46;;;;;;;5.47;3.28;;;;;;;11.47;41.85;98300.94;10307812;28;20456;-76
2022/04/23 23:32:48;;;;;;;7.70;3.25;;;;;;;11.59;42.10;98307.69;10329870;28;20121;-76
2022/04/23 23:37:49;;;;;;;6.35;3.47;;;;;;;11.58;42.12;98307.84;10326297;28;20435;-76
2022/04/23 23:42:52;;;;;;;6.05;3.25;;;;;;;11.48;41.99;98297.34;10325936;28;20145;-77
2022/04/23 23:47:54;;;;;;;6.63;3.75;;;;;;;11.41;42.17;98298.88;10343539;28;20161;-76
2022/04/23 23:52:55;;;;;;;4.88;3.50;;;;;;;11.32;42.38;98297.06;10322410;28;20128;-76
2022/04/23 23:57:57;;;;;;;5.13;3.33;;;;;;;11.36;42.94;98295.03;10316388;28;20130;-76
